Time;durP1;ratioP1;P1;durP2;ratioP2;P2;SDS_P1;SDS_P2;PMS_P1;PMS_P2;Temp;Humidity;BMP_temperature;BMP_pressure;BME280_temperature;BME280_humidity;BME280_pressure;Samples;Min_cycle;Max_cycle;Signal;HPM_P1;HPM_P2
2021/03/04 00:02:16;;;;;;;13.77;11.70;;;9.30;69.50;;;;;;6198053;28;20461;-59
2021/03/04 00:05:18;;;;;;;13.50;12.10;;;9.30;69.60;;;;;;6199386;28;20469;-59
2021/03/04 00:08:20;;;;;;;12.83;10.80;;;9.20;70.00;;;;;;6208581;28;20451;-59
2021/03/04 00:11:23;;;;;;;16.47;11.70;;;9.20;70.20;;;;;;6207054;28;20575;-59
2021/03/04 00:14:26;;;;;;;16.43;11.33;;;9.10;70.50;;;;;;6213571;28;20451;-60
2021/03/04 00:17:28;;;;;;;13.77;11.70;;;9.10;70.90;;;;;;6222310;28;20487;-60
2021/03/04 00:20:32;;;;;;;15.60;11.60;;;9.10;71.60;;;;;;6222916;28;20444;-60
2021/03/04 00:23:34;;;;;;;18.73;10.47;;;9.00;70.90;;;;;;6222695;28;20459;-60
2021/03/04 00:26:36;;;;;;;14.47;10.63;;;9.10;71.20;;;;;;6213194;28;20468;-60
2021/03/04 00:29:39;;;;;;;12.50;10.73;;;9.00;71.20;;;;;;6199666;28;20790;-60
2021/03/04 00:32:42;;;;;;;14.13;10.33;;;8.90;71.40;;;;;;6203238;28;20483;-59
2021/03/04 00:35:44;;;;;;;11.20;9.20;;;8.90;71.70;;;;;;6203252;28;20480;-60
2021/03/04 00:38:47;;;;;;;16.93;11.43;;;8.90;71.90;;;;;;6203060;28;20468;-59
2021/03/04 00:41:50;;;;;;;14.73;13.10;;;9.00;72.10;;;;;;6202944;28;20468;-60
2021/03/04 00:44:53;;;;;;;17.93;12.27;;;9.00;72.10;;;;;;6211490;28;20789;-60
2021/03/04 00:47:55;;;;;;;13.57;12.17;;;8.90;72.20;;;;;;6227178;28;20471;-59
2021/03/04 00:50:58;;;;;;;14.77;13.17;;;8.90;72.30;;;;;;6227262;28;20491;-60
2021/03/04 00:54:00;;;;;;;18.27;13.47;;;8.90;72.40;;;;;;6227028;28;20474;-59
2021/03/04 00:57:02;;;;;;;14.70;12.47;;;8.80;72.60;;;;;;6221908;28;20464;-60
2021/03/04 01:00:08;;;;;;;16.20;12.87;;;8.80;72.70;;;;;;6202646;28;20685;-67
2021/03/04 01:03:13;;;;;;;14.90;12.90;;;8.80;73.10;;;;;;6201337;28;20973;-59
2021/03/04 01:06:16;;;;;;;16.27;11.97;;;8.80;73.50;;;;;;6200896;28;20476;-59
2021/03/04 01:09:19;;;;;;;17.80;13.07;;;8.70;73.50;;;;;;6200946;28;20853;-59
2021/03/04 01:12:21;;;;;;;17.47;13.53;;;8.70;73.90;;;;;;6201032;28;20476;-59
2021/03/04 01:15:24;;;;;;;15.70;12.03;;;8.70;74.30;;;;;;6201055;28;20476;-59
2021/03/04 01:18:27;;;;;;;14.87;12.20;;;8.60;74.20;;;;;;6200120;28;20495;-60
2021/03/04 01:21:29;;;;;;;16.30;11.17;;;8.50;74.60;;;;;;6227013;28;20999;-59
2021/03/04 01:24:39;;;;;;;14.83;11.30;;;8.60;75.40;;;;;;6227308;28;20472;-59
2021/03/04 01:27:41;;;;;;;18.40;12.80;;;8.60;75.30;;;;;;6227906;28;20476;-59
2021/03/04 01:30:44;;;;;;;15.53;13.03;;;8.60;75.40;;;;;;6227456;28;20456;-59
2021/03/04 01:33:52;;;;;;;14.30;12.07;;;8.60;75.30;;;;;;6228116;28;20483;-60
2021/03/04 01:36:54;;;;;;;13.63;11.30;;;8.60;75.30;;;;;;6228816;28;20805;-59
2021/03/04 01:39:57;;;;;;;18.30;10.97;;;8.60;75.10;;;;;;6228602;28;20476;-59
2021/03/04 01:42:59;;;;;;;14.30;12.60;;;8.50;75.30;;;;;;6227621;28;20472;-59
2021/03/04 01:46:02;;;;;;;13.83;10.87;;;8.50;75.40;;;;;;6228155;28;20487;-59
2021/03/04 01:49:23;;;;;;;13.73;10.37;;;8.50;75.50;;;;;;6228160;28;20488;-59
2021/03/04 01:52:26;;;;;;;14.03;11.90;;;8.50;75.80;;;;;;6228782;28;20468;-60
2021/03/04 01:55:29;;;;;;;14.17;11.53;;;8.40;75.80;;;;;;6227949;28;20541;-59
2021/03/04 01:58:32;;;;;;;12.90;10.93;;;8.30;76.00;;;;;;6227905;28;20471;-59
2021/03/04 02:01:35;;;;;;;14.37;11.00;;;8.30;76.10;;;;;;6228037;28;20471;-59
2021/03/04 02:04:37;;;;;;;18.43;11.73;;;8.30;76.40;;;;;;6227834;28;20988;-60
2021/03/04 02:07:48;;;;;;;16.00;11.10;;;8.30;76.50;;;;;;6228206;28;20994;-59
2021/03/04 02:10:54;;;;;;;18.10;11.80;;;8.20;76.40;;;;;;6227676;28;20484;-59
2021/03/04 02:14:04;;;;;;;12.67;10.93;;;8.20;76.80;;;;;;6228203;28;20804;-60
2021/03/04 02:17:27;;;;;;;13.03;10.97;;;8.20;76.90;;;;;;6227137;28;20647;-59
2021/03/04 02:20:34;;;;;;;10.53;9.23;;;8.20;77.00;;;;;;6227703;28;20413;-59
2021/03/04 02:24:30;;;;;;;14.10;9.77;;;8.10;77.20;;;;;;6223202;28;20468;-60
2021/03/04 02:27:35;;;;;;;12.27;9.43;;;8.10;77.20;;;;;;6170332;28;20807;-59
2021/03/04 02:30:41;;;;;;;13.60;10.50;;;8.10;77.40;;;;;;6226986;28;20959;-59
2021/03/04 02:33:44;;;;;;;14.20;9.77;;;8.00;77.40;;;;;;6227204;28;20817;-59
2021/03/04 02:36:50;;;;;;;13.47;10.43;;;8.00;78.60;;;;;;6227298;28;20483;-59
2021/03/04 02:39:54;;;;;;;11.20;9.10;;;7.90;78.10;;;;;;6227467;28;20475;-59
2021/03/04 02:43:01;;;;;;;14.60;10.87;;;7.90;78.50;;;;;;6227000;28;20471;-59
2021/03/04 02:46:03;;;;;;;11.87;9.37;;;7.90;78.80;;;;;;6226826;28;20481;-59
2021/03/04 02:49:07;;;;;;;11.67;10.13;;;7.80;79.30;;;;;;6226630;28;20529;-59
2021/03/04 02:52:10;;;;;;;12.57;10.30;;;7.80;79.70;;;;;;6227074;28;20777;-59
2021/03/04 02:55:14;;;;;;;11.30;9.37;;;7.70;80.10;;;;;;6226621;28;20502;-59
2021/03/04 02:58:18;;;;;;;10.10;9.10;;;7.60;80.80;;;;;;6227185;28;20464;-59
2021/03/04 03:01:22;;;;;;;12.23;9.60;;;7.70;81.10;;;;;;6226644;28;20543;-59
2021/03/04 03:04:26;;;;;;;14.83;9.80;;;7.70;81.50;;;;;;6226473;28;20479;-59
2021/03/04 03:07:30;;;;;;;12.80;10.07;;;7.70;81.60;;;;;;6226919;28;20472;-59
2021/03/04 03:10:34;;;;;;;17.37;11.10;;;7.60;81.70;;;;;;6226103;28;20983;-59
2021/03/04 03:13:39;;;;;;;9.70;8.70;;;7.60;82.30;;;;;;6226118;28;20487;-59
2021/03/04 03:16:41;;;;;;;14.43;10.50;;;7.60;83.10;;;;;;6225959;28;20527;-59
2021/03/04 03:19:43;;;;;;;12.27;9.77;;;7.60;82.50;;;;;;6225952;28;20565;-59
2021/03/04 03:22:46;;;;;;;11.77;9.60;;;7.60;82.50;;;;;;6226250;28;20475;-59
2021/03/04 03:25:48;;;;;;;12.33;9.37;;;7.70;82.80;;;;;;6225747;28;20518;-59
2021/03/04 03:28:51;;;;;;;12.20;9.40;;;7.70;82.70;;;;;;6217167;28;20491;-59
2021/03/04 03:31:57;;;;;;;15.00;9.90;;;7.70;82.70;;;;;;6225869;28;20487;-60
2021/03/04 03:35:00;;;;;;;10.90;8.67;;;7.60;82.90;;;;;;6225895;28;21006;-59
2021/03/04 03:38:04;;;;;;;10.43;9.13;;;7.60;83.00;;;;;;6225350;28;20503;-59
2021/03/04 03:41:08;;;;;;;9.37;8.37;;;7.60;83.20;;;;;;6225513;28;20479;-59
2021/03/04 03:44:12;;;;;;;13.60;8.90;;;7.60;84.30;;;;;;6225542;28;20478;-59
2021/03/04 03:47:15;;;;;;;12.50;8.13;;;7.60;83.60;;;;;;6225478;28;20986;-59
2021/03/04 03:50:19;;;;;;;10.60;9.03;;;7.50;83.50;;;;;;6225370;28;20787;-59
2021/03/04 03:53:23;;;;;;;11.03;8.47;;;7.60;83.70;;;;;;6225767;28;20455;-59
2021/03/04 03:56:26;;;;;;;10.07;8.13;;;7.50;83.50;;;;;;6225557;28;20468;-59
2021/03/04 03:59:32;;;;;;;11.70;9.03;;;7.50;83.50;;;;;;6226045;28;20424;-59
2021/03/04 04:02:35;;;;;;;9.80;7.97;;;7.50;83.50;;;;;;6225606;28;20452;-59
2021/03/04 04:05:38;;;;;;;9.13;7.50;;;7.50;83.70;;;;;;6231489;28;20940;-59
2021/03/04 04:08:41;;;;;;;12.27;8.57;;;7.40;83.50;;;;;;6233823;28;20464;-59
2021/03/04 04:11:43;;;;;;;9.33;7.87;;;7.40;84.10;;;;;;6233654;28;20463;-59
2021/03/04 04:14:46;;;;;;;11.73;8.70;;;7.30;84.30;;;;;;6233328;28;20788;-59
2021/03/04 04:17:50;;;;;;;9.83;8.83;;;7.30;85.30;;;;;;6232980;28;20978;-59
2021/03/04 04:20:53;;;;;;;10.43;8.47;;;7.30;84.70;;;;;;6233779;28;20510;-59
2021/03/04 04:23:55;;;;;;;10.83;9.50;;;7.30;84.60;;;;;;6233493;28;20471;-59
2021/03/04 04:26:58;;;;;;;12.20;8.93;;;7.30;84.70;;;;;;6232924;28;20967;-59
2021/03/04 04:30:01;;;;;;;11.40;9.20;;;7.30;84.50;;;;;;6233518;28;20464;-59
2021/03/04 04:33:03;;;;;;;11.10;8.43;;;7.20;84.70;;;;;;6233645;28;20487;-59
2021/03/04 04:36:07;;;;;;;9.07;8.17;;;7.20;85.20;;;;;;6233329;28;20486;-60
2021/03/04 04:39:09;;;;;;;9.40;8.40;;;7.20;85.50;;;;;;6233340;28;20485;-60
2021/03/04 04:42:14;;;;;;;13.43;8.90;;;7.20;85.60;;;;;;6232988;28;20486;-60
2021/03/04 04:45:17;;;;;;;12.27;8.87;;;7.10;85.60;;;;;;6233810;28;20484;-60
2021/03/04 04:48:19;;;;;;;11.00;7.77;;;7.10;85.80;;;;;;6233565;28;20468;-59
2021/03/04 04:51:39;;;;;;;8.73;7.30;;;7.10;85.80;;;;;;6233293;28;20491;-60
2021/03/04 04:54:41;;;;;;;9.33;7.73;;;7.10;86.20;;;;;;6233007;28;20488;-60
2021/03/04 04:57:43;;;;;;;10.30;8.53;;;7.00;86.40;;;;;;6232966;28;20480;-60
2021/03/04 05:00:46;;;;;;;9.90;7.83;;;6.90;87.90;;;;;;6232978;28;20810;-60
2021/03/04 05:03:49;;;;;;;8.37;7.40;;;6.90;87.40;;;;;;6233101;28;20467;-61
2021/03/04 05:06:51;;;;;;;10.03;7.90;;;6.90;88.10;;;;;;6233065;28;20497;-58
2021/03/04 05:09:53;;;;;;;12.43;8.10;;;7.00;87.80;;;;;;6233136;28;20479;-59
2021/03/04 05:12:56;;;;;;;11.13;8.60;;;7.00;87.90;;;;;;6232747;28;20475;-59
2021/03/04 05:15:59;;;;;;;16.80;10.70;;;7.00;88.00;;;;;;6229409;28;20475;-59
2021/03/04 05:19:01;;;;;;;13.27;10.40;;;7.00;87.70;;;;;;6228965;28;20482;-60
2021/03/04 05:22:07;;;;;;;15.53;12.97;;;6.90;88.20;;;;;;6229153;28;20516;-61
2021/03/04 05:25:11;;;;;;;12.77;9.03;;;6.80;88.40;;;;;;6228424;28;20491;-60
2021/03/04 05:28:13;;;;;;;13.63;9.70;;;6.80;88.60;;;;;;6228760;28;20467;-60
2021/03/04 05:31:16;;;;;;;14.70;9.40;;;6.80;88.70;;;;;;6228954;28;20519;-59
2021/03/04 05:34:19;;;;;;;14.70;9.63;;;6.70;89.50;;;;;;6228699;28;21028;-59
2021/03/04 05:37:21;;;;;;;15.67;8.80;;;6.70;89.70;;;;;;6229084;28;20472;-59
2021/03/04 05:40:23;;;;;;;17.47;11.27;;;6.70;90.00;;;;;;6228155;28;20471;-60
2021/03/04 05:43:26;;;;;;;24.10;10.63;;;6.80;90.00;;;;;;6228284;28;20472;-59
2021/03/04 05:46:36;;;;;;;15.37;9.00;;;6.80;90.00;;;;;;6228160;28;20987;-59
2021/03/04 05:49:45;;;;;;;11.40;8.17;;;6.80;89.90;;;;;;6228548;28;20481;-59
2021/03/04 05:52:51;;;;;;;13.93;9.50;;;6.80;89.70;;;;;;6227986;28;20495;-60
2021/03/04 05:55:54;;;;;;;22.70;9.43;;;6.90;89.80;;;;;;6227679;28;20503;-60
2021/03/04 05:59:00;;;;;;;14.07;9.00;;;6.90;89.80;;;;;;6227825;28;20955;-59
2021/03/04 06:02:06;;;;;;;14.50;8.07;;;6.90;89.80;;;;;;6228009;28;20460;-59
2021/03/04 06:05:11;;;;;;;12.10;9.07;;;6.80;90.00;;;;;;6228020;28;20550;-59
2021/03/04 06:08:14;;;;;;;10.50;7.77;;;6.90;89.70;;;;;;6228134;28;20976;-60
2021/03/04 06:11:16;;;;;;;11.63;10.50;;;7.00;89.80;;;;;;6227094;28;20828;-59
2021/03/04 06:14:18;;;;;;;10.47;7.70;;;7.00;89.60;;;;;;6227557;28;20997;-59
2021/03/04 06:17:21;;;;;;;12.37;8.40;;;7.00;89.40;;;;;;6227168;28;20952;-59
2021/03/04 06:20:35;;;;;;;13.03;7.70;;;7.10;89.40;;;;;;6227536;28;20448;-59
2021/03/04 06:23:37;;;;;;;8.93;7.97;;;7.10;89.40;;;;;;6227534;28;20425;-59
2021/03/04 06:26:39;;;;;;;10.93;7.63;;;7.20;89.20;;;;;;6226884;28;20510;-59
2021/03/04 06:29:52;;;;;;;9.57;7.30;;;7.20;88.90;;;;;;6227566;28;20460;-59
2021/03/04 06:32:57;;;;;;;26.43;8.73;;;7.30;88.40;;;;;;6227565;28;20464;-60
2021/03/04 06:36:10;;;;;;;9.17;6.60;;;7.40;88.00;;;;;;6227197;28;20623;-59
2021/03/04 06:39:13;;;;;;;10.97;7.97;;;7.50;87.60;;;;;;6218087;28;20461;-60
2021/03/04 06:42:18;;;;;;;11.20;9.37;;;7.60;86.90;;;;;;6226659;28;20868;-59
2021/03/04 06:45:30;;;;;;;15.40;9.00;;;7.70;87.00;;;;;;6226866;28;20480;-59
2021/03/04 06:48:35;;;;;;;9.93;7.60;;;7.80;86.50;;;;;;6226957;28;20472;-59
2021/03/04 06:51:43;;;;;;;11.70;8.13;;;8.00;86.30;;;;;;6226703;28;21067;-59
2021/03/04 06:54:47;;;;;;;10.93;8.40;;;8.10;85.60;;;;;;6226607;28;20476;-59
2021/03/04 06:58:00;;;;;;;10.27;7.30;;;8.20;84.30;;;;;;6227005;28;20487;-59
2021/03/04 07:01:07;;;;;;;9.83;7.10;;;8.30;83.90;;;;;;6226467;28;20487;-59
2021/03/04 07:04:15;;;;;;;9.60;7.43;;;8.40;83.20;;;;;;6225694;28;20963;-59
2021/03/04 07:07:18;;;;;;;12.10;9.33;;;8.60;82.60;;;;;;6220899;28;20469;-61
2021/03/04 07:10:21;;;;;;;13.37;8.23;;;8.70;82.10;;;;;;6226309;28;20479;-61
2021/03/04 07:13:23;;;;;;;13.93;7.53;;;8.90;81.70;;;;;;6225365;28;20468;-59
2021/03/04 07:16:32;;;;;;;11.87;6.97;;;9.00;81.00;;;;;;6225291;28;20591;-60
2021/03/04 07:19:37;;;;;;;8.83;6.53;;;9.20;78.60;;;;;;6226216;28;20570;-60
2021/03/04 07:22:41;;;;;;;10.40;6.57;;;9.40;77.60;;;;;;6225635;28;20484;-61
2021/03/04 07:25:43;;;;;;;12.80;7.67;;;9.60;76.20;;;;;;6224918;28;20486;-60
2021/03/04 07:28:47;;;;;;;11.33;7.03;;;9.80;75.10;;;;;;6226137;28;20487;-60
2021/03/04 07:31:51;;;;;;;8.33;7.40;;;10.10;72.50;;;;;;6226082;28;20491;-60
2021/03/04 07:34:55;;;;;;;8.70;7.10;;;10.40;71.40;;;;;;6225725;28;20799;-60
2021/03/04 07:37:57;;;;;;;19.20;7.90;;;10.70;70.50;;;;;;6225474;28;20488;-60
2021/03/04 07:41:07;;;;;;;15.57;8.67;;;11.00;68.90;;;;;;6224416;28;20846;-60
2021/03/04 07:44:11;;;;;;;14.83;7.73;;;11.30;67.60;;;;;;6221874;28;20816;-60
2021/03/04 07:47:14;;;;;;;17.07;7.77;;;11.70;66.00;;;;;;6224025;28;21036;-60
2021/03/04 07:50:18;;;;;;;8.70;6.20;;;12.00;63.50;;;;;;6222540;28;20472;-60
2021/03/04 07:53:21;;;;;;;12.20;7.00;;;12.30;62.40;;;;;;6225109;28;20448;-60
2021/03/04 07:56:25;;;;;;;7.90;6.27;;;12.70;60.80;;;;;;6224995;28;20464;-61
2021/03/04 07:59:27;;;;;;;12.80;7.20;;;13.00;58.00;;;;;;6225115;28;20432;-60
2021/03/04 08:02:31;;;;;;;9.37;5.80;;;13.30;57.00;;;;;;6225086;28;20439;-59
2021/03/04 08:05:36;;;;;;;12.93;5.90;;;13.80;55.10;;;;;;6219903;28;20484;-60
2021/03/04 08:08:39;;;;;;;12.17;5.73;;;14.20;53.80;;;;;;6225029;28;20771;-60
2021/03/04 08:11:42;;;;;;;7.43;5.00;;;14.40;51.50;;;;;;6225287;28;20456;-60
2021/03/04 08:15:02;;;;;;;14.33;10.57;;;14.40;49.40;;;;;;6225197;28;20506;-60
2021/03/04 08:18:16;;;;;;;22.27;13.10;;;14.30;52.20;;;;;;6223887;28;20994;-61
2021/03/04 08:21:20;;;;;;;25.67;14.47;;;14.30;53.90;;;;;;6221112;28;20967;-60
2021/03/04 08:24:26;;;;;;;20.47;13.57;;;14.30;55.00;;;;;;6224687;28;20540;-58
2021/03/04 08:27:28;;;;;;;14.77;7.80;;;14.30;53.60;;;;;;6224706;28;20499;-59
2021/03/04 08:30:32;;;;;;;14.73;10.80;;;14.20;51.00;;;;;;6224711;28;20475;-58
2021/03/04 08:33:35;;;;;;;8.23;4.53;;;14.00;51.60;;;;;;6219398;28;20472;-58
2021/03/04 08:36:42;;;;;;;8.53;4.27;;;13.90;49.00;;;;;;6224474;28;20483;-58
2021/03/04 08:39:44;;;;;;;8.67;4.33;;;13.90;48.50;;;;;;6224499;28;20479;-58
2021/03/04 08:42:47;;;;;;;12.40;5.03;;;14.00;47.50;;;;;;6224137;28;20472;-58
2021/03/04 08:45:52;;;;;;;7.00;4.40;;;14.10;47.40;;;;;;6176569;28;20625;-60
2021/03/04 08:48:55;;;;;;;30.13;7.93;;;14.30;47.20;;;;;;6176632;28;20492;-59
2021/03/04 08:51:58;;;;;;;5.83;3.73;;;14.40;46.30;;;;;;6180078;28;20953;-60
2021/03/04 08:55:03;;;;;;;6.10;4.43;;;14.70;46.10;;;;;;6181443;28;20516;-58
2021/03/04 08:58:07;;;;;;;5.33;3.97;;;15.00;45.30;;;;;;6205983;28;20579;-61
2021/03/04 09:01:10;;;;;;;14.53;3.80;;;15.10;44.70;;;;;;6221562;28;20496;-58
2021/03/04 09:04:17;;;;;;;5.30;4.20;;;15.40;43.70;;;;;;6204253;28;20485;-60
2021/03/04 09:07:29;;;;;;;11.17;3.97;;;15.30;43.00;;;;;;6223263;28;20547;-60
2021/03/04 09:10:39;;;;;;;8.10;4.33;;;15.30;43.40;;;;;;6228524;28;20488;-60
2021/03/04 09:13:41;;;;;;;10.63;4.30;;;15.40;43.50;;;;;;6226963;28;20486;-59
2021/03/04 09:16:46;;;;;;;12.37;5.17;;;15.60;43.20;;;;;;6203943;28;20519;-58
2021/03/04 09:19:54;;;;;;;20.20;5.13;;;15.70;43.00;;;;;;6204397;28;20491;-59
2021/03/04 09:22:57;;;;;;;11.17;5.63;;;15.90;42.50;;;;;;6204170;28;20965;-61
2021/03/04 09:26:01;;;;;;;13.67;4.77;;;16.20;41.90;;;;;;6203780;28;20567;-61
2021/03/04 09:29:06;;;;;;;5.97;4.37;;;16.40;42.00;;;;;;6203833;28;20477;-60
2021/03/04 09:32:09;;;;;;;8.07;4.33;;;16.40;40.80;;;;;;6215938;28;20862;-60
2021/03/04 09:35:13;;;;;;;9.10;4.07;;;16.20;41.10;;;;;;6227990;28;20491;-60
2021/03/04 09:38:16;;;;;;;9.47;4.50;;;16.20;41.30;;;;;;6228041;28;20483;-59
2021/03/04 09:41:22;;;;;;;10.37;4.10;;;16.30;40.80;;;;;;6227574;28;20468;-59
2021/03/04 09:44:25;;;;;;;6.90;4.20;;;16.40;40.50;;;;;;6228029;28;20455;-60
2021/03/04 09:47:30;;;;;;;6.13;3.80;;;16.60;40.00;;;;;;6228188;28;20447;-60
2021/03/04 09:50:32;;;;;;;6.90;4.20;;;16.70;39.60;;;;;;6223416;28;20468;-59
2021/03/04 09:53:47;;;;;;;5.90;3.87;;;16.80;38.90;;;;;;6227888;28;20452;-59
2021/03/04 09:57:01;;;;;;;7.73;5.17;;;17.00;39.30;;;;;;6227306;28;20596;-58
2021/03/04 10:00:06;;;;;;;8.27;4.30;;;17.80;39.00;;;;;;6208343;28;20824;-60
2021/03/04 10:03:11;;;;;;;14.27;7.30;;;18.70;37.60;;;;;;6202478;28;20483;-60
2021/03/04 10:06:20;;;;;;;24.03;13.07;;;19.20;36.50;;;;;;6215302;28;20237;-60
2021/03/04 10:09:27;;;;;;;21.77;12.70;;;20.50;39.10;;;;;;6227254;28;20309;-61
2021/03/04 10:12:29;;;;;;;20.40;13.07;;;21.30;38.50;;;;;;6226878;28;20245;-61
2021/03/04 10:15:34;;;;;;;28.53;14.47;;;21.40;37.50;;;;;;6226715;28;20233;-63
2021/03/04 10:18:36;;;;;;;18.13;13.50;;;21.10;37.40;;;;;;6226475;28;20241;-61
2021/03/04 10:21:38;;;;;;;21.53;13.00;;;20.80;38.10;;;;;;6226910;28;20236;-58
2021/03/04 10:24:42;;;;;;;23.10;14.27;;;20.40;38.20;;;;;;6227123;28;20237;-58
2021/03/04 10:27:44;;;;;;;20.33;13.00;;;20.10;38.50;;;;;;6226579;28;20576;-60
2021/03/04 10:30:46;;;;;;;20.63;12.33;;;19.50;39.10;;;;;;6226592;28;20247;-58
2021/03/04 10:33:49;;;;;;;20.50;12.20;;;19.30;39.80;;;;;;6211304;28;20268;-59
2021/03/04 10:36:52;;;;;;;23.50;13.17;;;19.80;39.50;;;;;;6202180;28;20311;-59
2021/03/04 10:39:55;;;;;;;24.63;12.90;;;20.90;38.60;;;;;;6201893;28;20256;-60
2021/03/04 10:43:00;;;;;;;18.90;13.30;;;22.40;36.80;;;;;;6202120;28;20398;-61
2021/03/04 10:46:03;;;;;;;21.93;13.33;;;24.50;34.20;;;;;;6202398;28;20248;-62
2021/03/04 10:49:06;;;;;;;16.33;12.87;;;25.90;31.50;;;;;;6202253;28;20241;-58
2021/03/04 10:52:08;;;;;;;19.13;12.07;;;26.30;29.60;;;;;;6201734;28;20255;-60
2021/03/04 10:55:12;;;;;;;13.57;12.10;;;27.20;28.60;;;;;;6201387;28;20735;-60
2021/03/04 10:58:14;;;;;;;17.83;12.53;;;27.80;27.60;;;;;;6197022;28;20280;-60
2021/03/04 11:01:17;;;;;;;18.97;11.57;;;27.30;27.30;;;;;;6201499;28;20237;-64
2021/03/04 11:04:19;;;;;;;24.33;11.47;;;26.30;27.70;;;;;;6201550;28;20344;-61
2021/03/04 11:07:21;;;;;;;15.80;11.13;;;25.40;28.40;;;;;;6223486;28;20311;-61
2021/03/04 11:10:25;;;;;;;19.47;10.77;;;24.60;29.00;;;;;;6225734;28;20692;-61
2021/03/04 11:13:27;;;;;;;13.57;10.50;;;24.80;29.10;;;;;;6224670;28;20559;-61
2021/03/04 11:16:29;;;;;;;16.53;10.67;;;25.30;28.60;;;;;;6225351;28;20260;-61
2021/03/04 11:19:32;;;;;;;15.70;10.47;;;25.40;28.30;;;;;;6225570;28;20239;-62
2021/03/04 11:22:35;;;;;;;10.83;9.60;;;25.40;28.50;;;;;;6225542;28;20551;-62
2021/03/04 11:25:39;;;;;;;15.13;9.57;;;25.80;27.60;;;;;;6225056;28;20237;-61
2021/03/04 11:28:41;;;;;;;11.53;9.17;;;25.60;28.10;;;;;;6225270;28;20232;-60
2021/03/04 11:31:43;;;;;;;18.07;10.00;;;25.80;27.70;;;;;;6225275;28;20224;-60
2021/03/04 11:34:46;;;;;;;15.97;9.90;;;25.40;27.50;;;;;;6225191;28;20243;-60
2021/03/04 11:37:48;;;;;;;17.97;10.70;;;25.10;28.40;;;;;;6225660;28;20229;-60
2021/03/04 11:40:51;;;;;;;15.83;9.20;;;25.00;28.20;;;;;;6224856;28;20229;-60
2021/03/04 11:43:54;;;;;;;13.80;8.57;;;24.60;28.20;;;;;;6224896;28;20252;-60
2021/03/04 11:46:56;;;;;;;16.83;9.67;;;24.60;28.40;;;;;;6224889;28;20310;-61
2021/03/04 11:49:58;;;;;;;11.90;9.60;;;24.60;28.50;;;;;;6193577;28;20308;-61
2021/03/04 11:53:01;;;;;;;12.80;9.37;;;24.70;28.10;;;;;;6200351;28;20234;-61
2021/03/04 11:56:04;;;;;;;15.33;9.37;;;24.80;28.60;;;;;;6200393;28;20562;-62
2021/03/04 11:59:11;;;;;;;13.23;9.27;;;24.40;28.10;;;;;;6194045;28;20238;-61
2021/03/04 12:02:14;;;;;;;16.27;10.87;;;24.20;28.60;;;;;;6191900;28;20229;-62
2021/03/04 12:05:16;;;;;;;12.70;9.80;;;24.20;28.70;;;;;;6204785;28;20229;-61
2021/03/04 12:08:19;;;;;;;14.50;8.53;;;24.40;28.70;;;;;;6224656;28;20752;-61
2021/03/04 12:11:42;;;;;;;16.47;8.50;;;24.40;28.00;;;;;;6224241;28;20233;-61
2021/03/04 12:14:44;;;;;;;16.90;9.00;;;23.90;28.20;;;;;;6224891;28;20235;-61
2021/03/04 12:17:46;;;;;;;18.63;8.53;;;24.00;28.70;;;;;;6224486;28;20236;-62
2021/03/04 12:20:51;;;;;;;17.13;9.13;;;24.90;28.30;;;;;;6224659;28;20233;-61
2021/03/04 12:23:53;;;;;;;10.87;7.47;;;26.10;26.90;;;;;;6224954;28;20217;-61
2021/03/04 12:27:04;;;;;;;12.97;7.40;;;26.50;26.30;;;;;;6228319;28;20696;-61
2021/03/04 12:30:07;;;;;;;9.07;6.90;;;26.80;25.50;;;;;;6230061;28;20232;-62
2021/03/04 12:33:10;;;;;;;9.87;7.20;;;27.10;25.10;;;;;;6229061;28;20236;-62
2021/03/04 12:36:12;;;;;;;10.70;5.83;;;26.70;25.00;;;;;;6229452;28;20246;-61
2021/03/04 12:39:15;;;;;;;11.80;6.43;;;26.30;24.30;;;;;;6229082;28;20687;-61
2021/03/04 12:42:19;;;;;;;9.33;7.37;;;26.10;24.30;;;;;;6229229;28;20228;-61
2021/03/04 12:45:23;;;;;;;8.60;6.47;;;26.20;24.50;;;;;;6229154;28;20232;-62
2021/03/04 12:48:25;;;;;;;15.60;6.53;;;26.00;24.50;;;;;;6229155;28;20312;-61
2021/03/04 12:51:27;;;;;;;11.00;7.20;;;25.30;25.40;;;;;;6228910;28;20247;-62
2021/03/04 12:54:30;;;;;;;10.23;6.73;;;24.80;26.40;;;;;;6229015;28;20225;-62
2021/03/04 12:57:38;;;;;;;8.60;6.17;;;24.40;26.20;;;;;;6228901;28;20233;-62
2021/03/04 13:00:40;;;;;;;7.00;6.13;;;24.40;26.40;;;;;;6207533;28;20229;-63
2021/03/04 13:03:53;;;;;;;14.53;6.97;;;25.40;25.90;;;;;;6195706;28;20557;-62
2021/03/04 13:06:55;;;;;;;6.30;5.70;;;27.40;24.70;;;;;;6222053;28;20251;-62
2021/03/04 13:09:58;;;;;;;11.43;4.43;;;28.20;23.10;;;;;;6228452;28;20718;-62
2021/03/04 13:13:02;;;;;;;6.13;5.60;;;29.90;20.60;;;;;;6228185;28;20759;-63
2021/03/04 13:16:05;;;;;;;10.70;5.50;;;30.80;20.30;;;;;;6228049;28;20264;-62
2021/03/04 13:19:07;;;;;;;6.37;5.77;;;29.60;20.60;;;;;;6228213;28;20232;-61
2021/03/04 13:22:10;;;;;;;8.53;6.00;;;28.60;21.30;;;;;;6228535;28;20228;-61
2021/03/04 13:25:12;;;;;;;6.93;5.93;;;27.80;22.40;;;;;;6228216;28;20260;-60
2021/03/04 13:28:16;;;;;;;8.23;5.37;;;28.50;22.30;;;;;;6227927;28;20228;-61
2021/03/04 13:31:18;;;;;;;11.07;6.73;;;28.90;22.00;;;;;;6227868;28;20232;-61
2021/03/04 13:34:20;;;;;;;6.60;5.83;;;28.20;22.20;;;;;;6227936;28;20254;-61
2021/03/04 13:37:23;;;;;;;8.03;5.47;;;27.80;22.20;;;;;;6226959;28;20228;-62
2021/03/04 13:40:25;;;;;;;4.20;3.73;;;27.90;22.20;;;;;;6227925;28;20228;-61
2021/03/04 13:43:28;;;;;;;5.10;3.53;;;28.00;21.60;;;;;;6227881;28;20232;-61
2021/03/04 13:46:31;;;;;;;5.60;3.70;;;26.80;21.50;;;;;;6227781;28;20251;-60
2021/03/04 13:49:33;;;;;;;6.83;3.27;;;26.00;22.30;;;;;;6227629;28;20229;-61
2021/03/04 13:52:36;;;;;;;4.90;4.23;;;25.50;22.70;;;;;;6227611;28;20667;-60
2021/03/04 13:55:38;;;;;;;5.33;3.67;;;25.20;23.00;;;;;;6226995;28;20252;-61
2021/03/04 13:58:41;;;;;;;5.63;3.90;;;24.60;23.30;;;;;;6222852;28;20229;-61
2021/03/04 14:01:44;;;;;;;7.13;3.60;;;23.90;23.90;;;;;;6202906;28;20750;-61
2021/03/04 14:04:51;;;;;;;5.27;3.57;;;23.40;24.30;;;;;;6203721;28;20245;-61
2021/03/04 14:08:04;;;;;;;5.63;3.37;;;22.90;24.60;;;;;;6217974;28;20229;-60
2021/03/04 14:11:06;;;;;;;7.13;4.53;;;22.00;25.30;;;;;;6226913;28;20248;-60
2021/03/04 14:14:09;;;;;;;4.23;3.37;;;21.60;25.90;;;;;;6227111;28;20692;-61
2021/03/04 14:17:12;;;;;;;4.83;3.97;;;21.20;26.10;;;;;;6226455;28;20251;-61
2021/03/04 14:20:15;;;;;;;6.53;3.80;;;21.00;26.60;;;;;;6226702;28;20275;-62
2021/03/04 14:23:17;;;;;;;6.37;3.83;;;20.70;26.80;;;;;;6226763;28;20647;-61
2021/03/04 14:26:19;;;;;;;8.17;3.73;;;20.40;27.10;;;;;;6226624;28;20250;-61
2021/03/04 14:29:23;;;;;;;4.77;4.00;;;20.10;27.30;;;;;;6226582;28;20228;-60
2021/03/04 14:32:25;;;;;;;8.17;3.53;;;19.90;27.70;;;;;;6226634;28;20261;-60
2021/03/04 14:35:30;;;;;;;5.17;3.70;;;19.70;27.90;;;;;;6226256;28;20315;-59
2021/03/04 14:38:33;;;;;;;7.10;3.10;;;19.40;28.00;;;;;;6226715;28;20220;-59
2021/03/04 14:41:36;;;;;;;3.93;3.53;;;19.20;28.30;;;;;;6226104;28;20287;-60
2021/03/04 14:44:39;;;;;;;5.63;3.70;;;19.10;28.60;;;;;;6226117;28;20363;-60
2021/03/04 14:47:41;;;;;;;5.00;3.30;;;18.80;28.40;;;;;;6211180;28;20293;-59
2021/03/04 14:50:44;;;;;;;4.60;3.30;;;18.80;28.60;;;;;;6214926;28;20546;-60
2021/03/04 14:53:47;;;;;;;10.77;3.50;;;18.70;28.90;;;;;;6222499;28;20236;-60
2021/03/04 14:56:49;;;;;;;6.67;3.70;;;18.50;28.80;;;;;;6201556;28;20356;-60
2021/03/04 14:59:52;;;;;;;3.57;3.03;;;18.40;28.90;;;;;;6201441;28;20241;-60
2021/03/04 15:02:54;;;;;;;8.37;3.70;;;18.20;29.20;;;;;;6201577;28;20331;-60
2021/03/04 15:05:57;;;;;;;6.63;3.30;;;18.00;29.40;;;;;;6211734;28;20475;-60
2021/03/04 15:08:59;;;;;;;4.97;4.30;;;17.90;29.60;;;;;;6220864;28;20799;-60
2021/03/04 15:12:01;;;;;;;8.30;4.37;;;17.50;30.50;;;;;;6225756;28;20479;-60
2021/03/04 15:15:06;;;;;;;5.83;3.53;;;17.40;31.20;;;;;;6225471;28;20476;-60
2021/03/04 15:18:09;;;;;;;7.47;3.57;;;17.30;31.70;;;;;;6225119;28;20484;-60
2021/03/04 15:21:11;;;;;;;4.47;3.80;;;17.00;31.80;;;;;;6225341;28;20464;-60
2021/03/04 15:24:16;;;;;;;8.27;3.80;;;17.00;32.10;;;;;;6225418;28;20975;-59
2021/03/04 15:27:19;;;;;;;6.77;4.50;;;16.80;32.50;;;;;;6225448;28;20623;-59
2021/03/04 15:30:27;;;;;;;12.13;4.80;;;16.60;32.90;;;;;;6225551;28;20476;-59
2021/03/04 15:33:29;;;;;;;8.73;5.03;;;16.60;33.00;;;;;;6225211;28;20603;-60
2021/03/04 15:36:33;;;;;;;5.30;4.70;;;16.60;33.00;;;;;;6225468;28;20558;-60
2021/03/04 15:39:37;;;;;;;12.70;5.80;;;16.60;33.00;;;;;;6224934;28;20484;-60
2021/03/04 15:42:39;;;;;;;6.80;4.63;;;16.60;33.00;;;;;;6224977;28;20468;-60
2021/03/04 15:45:42;;;;;;;7.30;4.03;;;16.60;33.30;;;;;;6225102;28;20471;-60
2021/03/04 15:48:45;;;;;;;7.43;4.33;;;16.60;33.70;;;;;;6204451;28;20472;-61
2021/03/04 15:51:47;;;;;;;7.13;5.20;;;16.60;34.00;;;;;;6201320;28;20497;-61